createdAt,value
2023-05-03T00:03:33.160Z,4.47
2023-05-03T00:07:50.866Z,4.72
2023-05-03T00:12:08.643Z,5.85
2023-05-03T00:16:26.350Z,5.53
2023-05-03T00:20:44.047Z,5.10
2023-05-03T00:25:01.231Z,4.75
2023-05-03T00:29:21.475Z,4.50
2023-05-03T00:33:39.982Z,4.72
2023-05-03T00:37:57.658Z,5.40
2023-05-03T00:42:15.320Z,4.82
2023-05-03T00:46:33.112Z,4.53
2023-05-03T00:50:50.986Z,4.50
2023-05-03T00:55:10.566Z,4.40
2023-05-03T00:59:29.176Z,4.78
2023-05-03T01:03:48.231Z,5.45
2023-05-03T01:08:56.517Z,5.82
2023-05-03T01:13:44.107Z,5.20
2023-05-03T01:18:34.935Z,4.70
2023-05-03T01:23:22.549Z,5.13
2023-05-03T01:27:41.914Z,5.22
2023-05-03T01:32:07.518Z,4.93
2023-05-03T01:36:34.067Z,4.63
2023-05-03T01:40:55.899Z,4.53
2023-05-03T01:45:13.901Z,4.57
2023-05-03T01:49:31.438Z,4.68
2023-05-03T01:53:49.077Z,4.78
2023-05-03T01:58:06.741Z,5.20
2023-05-03T02:02:24.750Z,5.70
2023-05-03T02:06:42.691Z,4.38
2023-05-03T02:11:00.441Z,4.95
2023-05-03T02:15:20.399Z,4.80
2023-05-03T02:19:38.092Z,5.07
2023-05-03T02:23:56.218Z,6.72
2023-05-03T02:32:31.620Z,6.07
2023-05-03T02:36:49.331Z,6.03
2023-05-03T02:41:06.874Z,7.03
2023-05-03T02:45:24.774Z,7.65
2023-05-03T02:49:42.299Z,5.45
2023-05-03T02:54:00.183Z,5.60
2023-05-03T02:58:17.750Z,6.15
2023-05-03T03:02:37.250Z,6.18
2023-05-03T03:11:13.026Z,6.32
2023-05-03T03:15:30.813Z,5.80
2023-05-03T03:19:48.663Z,5.93
2023-05-03T03:24:07.007Z,5.43
2023-05-03T03:28:24.821Z,5.57
2023-05-03T03:32:42.641Z,5.43
2023-05-03T03:37:00.354Z,6.00
2023-05-03T03:41:19.604Z,5.35
2023-05-03T03:45:37.382Z,6.50
2023-05-03T03:49:54.974Z,6.25
2023-05-03T03:54:12.641Z,6.80
2023-05-03T03:58:30.245Z,6.30
2023-05-03T04:02:48.031Z,5.90
2023-05-03T04:07:05.780Z,6.25
2023-05-03T04:11:24.016Z,6.15
2023-05-03T04:19:59.363Z,6.22
2023-05-03T04:24:17.610Z,4.05
2023-05-03T04:28:35.418Z,4.50
2023-05-03T04:32:55.674Z,3.88
2023-05-03T04:37:13.912Z,3.65
2023-05-03T04:41:31.501Z,3.95
2023-05-03T04:45:49.177Z,3.30
2023-05-03T04:50:11.377Z,3.70
2023-05-03T04:54:29.346Z,2.97
2023-05-03T04:58:47.002Z,2.67
2023-05-03T05:03:06.624Z,2.95
2023-05-03T05:07:24.392Z,2.53
2023-05-03T05:11:42.045Z,3.10
2023-05-03T05:15:59.620Z,2.55
2023-05-03T05:20:18.843Z,2.83
2023-05-03T05:24:36.790Z,2.83
2023-05-03T05:28:54.750Z,2.55
2023-05-03T05:33:12.362Z,3.00
2023-05-03T05:37:30.418Z,2.83
2023-05-03T05:41:47.969Z,2.80
2023-05-03T05:46:05.698Z,2.72
2023-05-03T05:50:23.266Z,2.42
2023-05-03T05:54:40.726Z,2.87
2023-05-03T05:58:58.251Z,2.40
2023-05-03T06:03:16.520Z,3.28
2023-05-03T06:07:36.224Z,3.72
2023-05-03T06:11:53.838Z,3.20
2023-05-03T06:16:12.115Z,3.92
2023-05-03T06:20:29.727Z,3.80
2023-05-03T06:24:47.608Z,4.03
2023-05-03T06:29:05.437Z,3.28
2023-05-03T06:33:23.062Z,7.70
2023-05-03T06:37:40.847Z,6.55
2023-05-03T06:41:58.375Z,8.23
2023-05-03T06:46:19.556Z,3.80
2023-05-03T06:50:37.952Z,4.82
2023-05-03T06:54:55.689Z,15.52
2023-05-03T06:59:13.240Z,3.33
2023-05-03T07:03:31.398Z,12.38
2023-05-03T07:07:49.080Z,12.70
2023-05-03T07:12:07.119Z,6.50
2023-05-03T07:20:43.597Z,4.05
2023-05-03T07:25:01.170Z,4.50
2023-05-03T07:29:18.886Z,3.55
2023-05-03T07:33:37.900Z,2.33
2023-05-03T07:37:57.053Z,2.25
2023-05-03T07:42:14.733Z,2.53
2023-05-03T07:46:35.544Z,3.30
2023-05-03T07:50:53.302Z,4.20
2023-05-03T07:55:11.354Z,3.45
2023-05-03T07:59:28.869Z,2.55
2023-05-03T08:03:47.023Z,3.05
2023-05-03T08:08:05.771Z,1.77
2023-05-03T08:12:24.261Z,2.20
2023-05-03T08:16:42.000Z,2.55
2023-05-03T08:21:00.221Z,4.55
2023-05-03T08:25:17.941Z,3.00
2023-05-03T08:29:39.566Z,2.95
2023-05-03T08:33:57.302Z,3.10
2023-05-03T08:38:15.913Z,2.10
2023-05-03T08:42:33.992Z,2.53
2023-05-03T08:46:51.907Z,2.63
2023-05-03T08:51:11.469Z,2.38
2023-05-03T08:55:30.027Z,2.53
2023-05-03T08:59:54.410Z,2.50
2023-05-03T09:04:12.893Z,2.92
2023-05-03T09:08:31.715Z,3.03
2023-05-03T09:17:20.582Z,2.97
2023-05-03T09:21:43.685Z,2.97
2023-05-03T09:26:00.951Z,2.35
2023-05-03T09:30:19.890Z,2.10
2023-05-03T09:34:37.771Z,2.63
2023-05-03T09:38:56.350Z,2.00
2023-05-03T09:43:18.718Z,3.75
2023-05-03T09:47:52.811Z,3.72
2023-05-03T09:52:11.370Z,2.38
2023-05-03T09:56:30.399Z,4.82
2023-05-03T10:00:52.243Z,3.53
2023-05-03T10:05:14.737Z,4.45
2023-05-03T10:09:40.127Z,2.00
2023-05-03T10:13:58.345Z,2.60
2023-05-03T10:18:18.800Z,2.95
2023-05-03T10:23:04.482Z,3.42
2023-05-03T10:27:22.027Z,2.80
2023-05-03T10:31:48.376Z,3.47
2023-05-03T10:36:10.928Z,3.28
2023-05-03T10:40:43.450Z,2.70
2023-05-03T10:45:03.938Z,2.75
2023-05-03T10:49:24.536Z,2.63
2023-05-03T10:53:43.632Z,3.72
2023-05-03T10:58:03.882Z,3.45
2023-05-03T11:02:31.610Z,14.82
2023-05-03T11:06:52.257Z,3.38
2023-05-03T11:11:10.195Z,2.90
2023-05-03T11:15:28.267Z,3.22
2023-05-03T11:19:47.118Z,4.15
2023-05-03T11:24:05.026Z,4.50
2023-05-03T11:28:23.358Z,2.88
2023-05-03T11:32:43.311Z,4.00
2023-05-03T11:37:02.847Z,3.42
2023-05-03T11:41:20.755Z,3.05
2023-05-03T11:45:45.772Z,2.50
2023-05-03T11:50:04.356Z,3.53
2023-05-03T11:54:26.342Z,5.00
2023-05-03T11:58:59.125Z,2.92
2023-05-03T12:03:32.283Z,2.88
2023-05-03T12:07:52.050Z,4.05
2023-05-03T12:12:13.324Z,4.90
2023-05-03T12:16:50.899Z,10.57
2023-05-03T12:21:30.829Z,6.45
2023-05-03T12:25:49.159Z,3.50
2023-05-03T12:30:11.024Z,2.92
2023-05-03T12:34:34.952Z,3.22
2023-05-03T12:38:56.385Z,3.15
2023-05-03T12:43:14.749Z,3.10
2023-05-03T12:52:23.644Z,3.92
2023-05-03T12:56:33.844Z,4.10
2023-05-03T13:01:28.112Z,3.15
2023-05-03T13:14:17.071Z,4.18
2023-05-03T13:18:34.793Z,3.67
2023-05-03T13:22:52.534Z,3.25
2023-05-03T13:27:13.095Z,3.83
2023-05-03T13:31:31.387Z,3.13
2023-05-03T13:35:49.105Z,3.20
2023-05-03T13:40:08.162Z,3.63
2023-05-03T13:44:26.325Z,3.00
2023-05-03T13:48:44.320Z,2.92
2023-05-03T13:53:02.108Z,3.13
2023-05-03T13:57:19.933Z,3.00
2023-05-03T14:01:38.232Z,3.13
2023-05-03T14:05:56.244Z,3.58
2023-05-03T14:10:14.015Z,3.38
2023-05-03T14:18:51.237Z,2.95
2023-05-03T14:23:09.012Z,3.40
2023-05-03T14:27:26.932Z,2.75
2023-05-03T14:31:44.753Z,2.83
2023-05-03T14:36:03.531Z,3.38
2023-05-03T14:40:22.035Z,2.75
2023-05-03T14:44:39.738Z,2.50
2023-05-03T14:48:57.606Z,2.47
2023-05-03T14:53:15.433Z,2.33
2023-05-03T14:57:34.266Z,2.03
2023-05-03T15:01:52.722Z,2.42
2023-05-03T15:06:10.539Z,3.08
2023-05-03T15:10:28.163Z,2.97
2023-05-03T15:14:47.654Z,2.25
2023-05-03T15:19:07.564Z,2.85
2023-05-03T15:23:25.195Z,2.28
2023-05-03T15:32:01.862Z,2.92
2023-05-03T15:36:19.562Z,3.15
2023-05-03T15:40:37.392Z,2.40
2023-05-03T15:44:55.049Z,2.28
2023-05-03T15:49:12.774Z,2.55
2023-05-03T15:53:30.432Z,2.80
2023-05-03T15:57:48.285Z,3.63
2023-05-03T16:02:09.483Z,2.72
2023-05-03T16:06:28.779Z,2.50
2023-05-03T16:10:46.538Z,5.22
2023-05-03T16:15:05.548Z,5.05
2023-05-03T16:19:25.693Z,4.00
2023-05-03T16:23:43.431Z,5.32
2023-05-03T16:32:20.081Z,4.68
2023-05-03T16:36:42.951Z,10.93
2023-05-03T16:41:02.274Z,5.00
2023-05-03T16:45:27.168Z,3.13
2023-05-03T16:49:45.087Z,6.28
2023-05-03T16:54:04.568Z,3.15
2023-05-03T16:58:22.422Z,3.47
2023-05-03T17:02:41.471Z,2.83
2023-05-03T17:06:58.646Z,4.47
2023-05-03T17:11:16.504Z,3.17
2023-05-03T17:15:34.737Z,3.65
2023-05-03T17:19:52.679Z,12.70
2023-05-03T17:24:11.838Z,3.20
2023-05-03T17:28:29.943Z,3.70
2023-05-03T17:32:47.683Z,3.25
2023-05-03T17:37:05.842Z,4.38
2023-05-03T17:41:23.665Z,4.38
2023-05-03T17:45:44.614Z,3.22
2023-05-03T17:50:02.514Z,4.90
2023-05-03T17:54:20.766Z,10.05
2023-05-03T17:58:38.553Z,11.65
2023-05-03T18:02:56.519Z,6.40
2023-05-03T18:07:14.403Z,4.28
2023-05-03T18:11:32.498Z,4.63
2023-05-03T18:15:50.857Z,6.00
2023-05-03T18:24:27.511Z,16.65
2023-05-03T18:28:45.090Z,20.27
2023-05-03T18:33:02.985Z,11.18
2023-05-03T18:37:24.732Z,9.98
2023-05-03T18:41:43.091Z,16.30
2023-05-03T18:50:20.660Z,10.93
2023-05-03T18:54:38.302Z,8.50
2023-05-03T18:58:57.136Z,7.65
2023-05-03T19:03:14.903Z,8.25
2023-05-03T19:07:32.624Z,13.30
2023-05-03T19:11:50.682Z,14.30
2023-05-03T19:16:08.526Z,16.33
2023-05-03T19:20:26.650Z,15.70
2023-05-03T19:24:44.127Z,21.33
2023-05-03T19:29:01.777Z,14.30
2023-05-03T19:33:20.580Z,10.82
2023-05-03T19:37:38.593Z,9.10
2023-05-03T19:41:56.777Z,10.77
2023-05-03T19:46:16.676Z,12.25
2023-05-03T19:50:36.260Z,8.88
2023-05-03T19:54:55.609Z,9.32
2023-05-03T19:59:13.232Z,7.65
2023-05-03T20:03:33.411Z,7.20
2023-05-03T20:07:52.842Z,7.10
2023-05-03T20:12:12.351Z,6.65
2023-05-03T20:16:33.485Z,5.95
2023-05-03T20:20:51.425Z,8.13
2023-05-03T20:25:09.745Z,5.88
2023-05-03T20:29:27.709Z,5.00
2023-05-03T20:38:03.395Z,8.00
2023-05-03T20:42:21.047Z,7.68
2023-05-03T20:46:39.319Z,9.93
2023-05-03T20:50:59.201Z,37.42
2023-05-03T20:55:17.123Z,20.00
2023-05-03T20:59:35.637Z,26.42
2023-05-03T21:03:53.354Z,16.88
2023-05-03T21:08:11.219Z,11.73
2023-05-03T21:12:29.263Z,10.52
2023-05-03T21:16:47.381Z,9.18
2023-05-03T21:21:05.078Z,7.28
2023-05-03T21:25:26.029Z,10.77
2023-05-03T21:29:49.153Z,9.95
2023-05-03T21:34:07.467Z,8.35
2023-05-03T21:38:25.346Z,10.50
2023-05-03T21:42:43.756Z,7.47
2023-05-03T21:47:02.231Z,6.00
2023-05-03T21:51:23.255Z,5.78
2023-05-03T21:55:40.922Z,6.15
2023-05-03T21:59:58.606Z,6.68
2023-05-03T22:04:16.365Z,9.15
2023-05-03T22:08:34.465Z,6.28
2023-05-03T22:12:52.258Z,7.93
2023-05-03T22:17:09.916Z,7.20
2023-05-03T22:21:27.899Z,8.10
2023-05-03T22:30:03.920Z,5.60
2023-05-03T22:34:21.959Z,6.40
2023-05-03T22:38:42.004Z,4.88
2023-05-03T22:42:59.628Z,3.08
2023-05-03T22:47:17.266Z,4.30
2023-05-03T22:51:35.109Z,5.22
2023-05-03T22:56:09.596Z,4.43
2023-05-03T23:00:27.411Z,4.65
2023-05-03T23:04:44.989Z,5.63
2023-05-03T23:09:02.695Z,6.00
2023-05-03T23:13:20.304Z,5.90
2023-05-03T23:17:38.292Z,4.25
2023-05-03T23:21:55.997Z,6.55
2023-05-03T23:26:13.598Z,7.53
2023-05-03T23:34:50.285Z,6.10
2023-05-03T23:39:08.556Z,7.90
2023-05-03T23:47:46.745Z,7.75
2023-05-03T23:52:04.563Z,9.18
2023-05-03T23:56:22.732Z,8.85
